createdAt,value
2023-05-06T00:00:34.391Z,16.84
2023-05-06T00:01:34.387Z,16.84
2023-05-06T00:02:34.429Z,16.84
2023-05-06T00:03:34.546Z,16.83
2023-05-06T00:04:34.452Z,16.84
2023-05-06T00:05:34.356Z,16.81
2023-05-06T00:06:34.330Z,16.84
2023-05-06T00:07:34.348Z,16.84
2023-05-06T00:08:34.310Z,16.83
2023-05-06T00:09:34.296Z,16.81
2023-05-06T00:10:34.279Z,16.79
2023-05-06T00:11:34.299Z,16.78
2023-05-06T00:16:50.542Z,16.72
2023-05-06T00:17:12.045Z,16.71
2023-05-06T00:18:12.021Z,16.69
2023-05-06T00:19:12.204Z,16.65
2023-05-06T00:20:12.002Z,16.66
2023-05-06T00:21:11.997Z,16.66
2023-05-06T00:22:11.995Z,16.64
2023-05-06T00:23:11.975Z,16.60
2023-05-06T00:24:11.971Z,16.58
2023-05-06T00:25:12.007Z,16.53
2023-05-06T00:26:11.932Z,16.56
2023-05-06T00:27:11.906Z,16.53
2023-05-06T00:28:11.958Z,16.56
2023-05-06T00:29:11.890Z,16.53
2023-05-06T00:30:11.917Z,16.54
2023-05-06T00:31:11.868Z,16.56
2023-05-06T00:32:11.891Z,16.53
2023-05-06T00:33:11.867Z,16.56
2023-05-06T00:34:11.904Z,16.56
2023-05-06T00:35:11.923Z,16.57
2023-05-06T00:36:11.831Z,16.57
2023-05-06T00:37:11.819Z,16.57
2023-05-06T00:38:11.803Z,16.56
2023-05-06T00:39:11.785Z,16.54
2023-05-06T00:40:12.057Z,16.54
2023-05-06T00:41:11.775Z,16.54
2023-05-06T00:42:11.793Z,16.51
2023-05-06T00:43:11.754Z,16.54
2023-05-06T00:44:11.749Z,16.51
2023-05-06T00:45:12.092Z,16.53
2023-05-06T00:46:11.849Z,16.49
2023-05-06T00:47:11.689Z,16.47
2023-05-06T00:48:11.785Z,16.46
2023-05-06T00:49:11.672Z,16.43
2023-05-06T00:50:11.680Z,16.41
2023-05-06T00:51:11.675Z,16.41
2023-05-06T00:52:11.666Z,16.35
2023-05-06T00:53:11.627Z,16.36
2023-05-06T00:54:11.644Z,16.35
2023-05-06T00:55:11.716Z,16.31
2023-05-06T00:56:11.615Z,16.29
2023-05-06T00:57:11.632Z,16.28
2023-05-06T00:58:11.623Z,16.23
2023-05-06T00:59:11.597Z,16.24
2023-05-06T01:00:11.560Z,16.23
2023-05-06T01:01:11.597Z,16.21
2023-05-06T01:02:11.579Z,16.21
2023-05-06T01:03:11.632Z,16.21
2023-05-06T01:04:11.590Z,16.16
2023-05-06T01:05:11.784Z,16.15
2023-05-06T01:06:11.501Z,16.15
2023-05-06T01:07:11.494Z,16.13
2023-05-06T01:08:11.520Z,16.12
2023-05-06T01:09:11.482Z,16.10
2023-05-06T01:10:12.419Z,16.08
2023-05-06T01:11:11.436Z,16.08
2023-05-06T01:12:11.446Z,16.04
2023-05-06T01:13:11.524Z,16.02
2023-05-06T01:14:11.418Z,16.04
2023-05-06T01:15:11.577Z,16.02
2023-05-06T01:16:11.413Z,16.02
2023-05-06T01:17:11.489Z,15.98
2023-05-06T01:18:11.404Z,15.95
2023-05-06T01:19:11.369Z,15.91
2023-05-06T01:20:11.385Z,15.92
2023-05-06T01:21:11.343Z,15.90
2023-05-06T01:22:11.350Z,15.88
2023-05-06T01:23:11.313Z,15.88
2023-05-06T01:24:11.307Z,15.86
2023-05-06T01:25:11.470Z,15.86
2023-05-06T01:26:11.328Z,15.83
2023-05-06T01:27:11.273Z,15.84
2023-05-06T01:28:11.275Z,15.82
2023-05-06T01:29:11.252Z,15.80
2023-05-06T01:30:11.272Z,15.79
2023-05-06T06:01:40.405Z,14.33
2023-05-06T06:02:41.395Z,14.33
2023-05-06T06:03:41.438Z,14.36
2023-05-06T06:04:41.349Z,14.36
2023-05-06T06:05:41.276Z,14.37
2023-05-06T06:06:41.319Z,14.37
2023-05-06T06:07:41.240Z,14.41
2023-05-06T06:08:41.245Z,14.43
2023-05-06T06:09:41.229Z,14.44
2023-05-06T06:10:41.236Z,14.44
2023-05-06T06:11:41.201Z,14.44
2023-05-06T06:12:41.280Z,14.45
2023-05-06T06:13:41.191Z,14.50
2023-05-06T06:14:41.193Z,14.51
2023-05-06T06:15:41.154Z,14.54
2023-05-06T06:16:41.286Z,14.55
2023-05-06T06:17:41.171Z,14.58
2023-05-06T06:18:41.192Z,14.59
2023-05-06T06:19:41.115Z,14.62
2023-05-06T06:20:41.128Z,14.62
2023-05-06T06:21:41.099Z,14.65
2023-05-06T06:22:41.097Z,14.65
2023-05-06T06:23:41.098Z,14.63
2023-05-06T06:24:41.100Z,14.65
2023-05-06T06:25:41.069Z,14.66
2023-05-06T06:26:41.070Z,14.70
2023-05-06T06:27:41.026Z,14.73
2023-05-06T06:28:41.039Z,14.77
2023-05-06T06:29:41.003Z,14.77
2023-05-06T06:30:41.137Z,14.78
2023-05-06T06:31:41.066Z,14.78
2023-05-06T06:32:41.045Z,14.81
2023-05-06T06:33:41.203Z,14.81
2023-05-06T06:34:40.964Z,14.81
2023-05-06T06:35:40.972Z,14.81
2023-05-06T06:36:40.943Z,14.84
2023-05-06T06:37:40.952Z,14.84
2023-05-06T06:38:40.935Z,14.85
2023-05-06T06:39:40.902Z,14.89
2023-05-06T06:40:40.903Z,14.89
2023-05-06T06:41:40.884Z,14.88
2023-05-06T06:42:40.888Z,14.86
2023-05-06T06:43:41.159Z,14.92
2023-05-06T06:44:40.871Z,14.91
2023-05-06T06:45:40.868Z,14.94
2023-05-06T06:46:40.834Z,14.94
2023-05-06T06:47:40.834Z,14.96
2023-05-06T06:48:40.810Z,14.97
2023-05-06T06:49:40.805Z,15.02
2023-05-06T06:50:40.812Z,15.07
2023-05-06T06:51:40.776Z,15.07
2023-05-06T06:52:40.782Z,15.10
2023-05-06T06:53:40.752Z,15.11
2023-05-06T06:54:40.763Z,15.11
2023-05-06T06:55:40.776Z,15.11
2023-05-06T06:56:40.748Z,15.15
2023-05-06T06:57:40.696Z,15.18
2023-05-06T06:58:40.716Z,15.19
2023-05-06T06:59:40.675Z,15.25
2023-05-06T07:00:40.754Z,15.27
2023-05-06T07:01:40.746Z,15.28
2023-05-06T07:02:40.724Z,15.28
2023-05-06T07:03:40.657Z,15.33
2023-05-06T07:04:40.798Z,15.36
2023-05-06T07:05:40.631Z,15.39
2023-05-06T07:06:40.618Z,15.43
2023-05-06T07:07:41.027Z,15.43
2023-05-06T07:08:40.612Z,15.46
2023-05-06T07:09:40.570Z,15.47
2023-05-06T07:10:40.576Z,15.51
2023-05-06T07:11:40.541Z,15.55
2023-05-06T07:12:40.595Z,15.55
2023-05-06T07:13:40.559Z,15.61
2023-05-06T07:14:40.547Z,15.61
2023-05-06T07:15:40.529Z,15.62
2023-05-06T07:16:40.525Z,15.65
2023-05-06T07:17:40.515Z,15.67
2023-05-06T07:18:40.486Z,15.68
2023-05-06T07:19:40.512Z,15.73
2023-05-06T07:20:40.468Z,15.76
2023-05-06T07:21:40.459Z,15.79
2023-05-06T07:22:40.436Z,15.82
2023-05-06T07:23:40.431Z,15.83
2023-05-06T07:24:40.439Z,15.88
2023-05-06T07:25:40.414Z,15.92
2023-05-06T07:26:40.426Z,15.97
2023-05-06T07:27:40.372Z,15.98
2023-05-06T07:28:40.378Z,16.02
2023-05-06T07:29:40.369Z,16.02
2023-05-06T07:30:40.382Z,16.08
2023-05-06T07:31:40.351Z,16.09
2023-05-06T07:32:40.363Z,16.13
2023-05-06T07:33:40.301Z,16.15
2023-05-06T07:34:40.388Z,16.17
2023-05-06T07:35:40.284Z,16.21
2023-05-06T07:36:40.409Z,16.23
2023-05-06T07:37:40.280Z,16.28
2023-05-06T07:38:40.263Z,16.28
2023-05-06T07:39:40.243Z,16.32
2023-05-06T07:40:40.306Z,16.33
2023-05-06T07:41:40.244Z,16.35
2023-05-06T07:42:42.253Z,16.38
2023-05-06T07:43:40.216Z,16.41
2023-05-06T07:44:40.258Z,16.43
2023-05-06T07:45:40.174Z,16.47
2023-05-06T07:46:40.276Z,16.53
2023-05-06T07:47:40.324Z,16.56
2023-05-06T07:48:40.160Z,16.57
2023-05-06T07:49:40.144Z,16.61
2023-05-06T07:50:40.155Z,16.61
2023-05-06T07:51:40.134Z,16.64
2023-05-06T07:52:40.159Z,16.64
2023-05-06T07:53:40.109Z,16.68
2023-05-06T07:54:40.096Z,16.71
2023-05-06T07:55:40.068Z,16.72
2023-05-06T07:56:40.133Z,16.71
2023-05-06T07:57:40.042Z,16.74
2023-05-06T07:58:40.057Z,16.75
2023-05-06T07:59:40.046Z,16.76
2023-05-06T08:00:40.048Z,16.79
2023-05-06T08:01:40.026Z,16.81
2023-05-06T08:02:40.094Z,16.83
2023-05-06T08:03:40.176Z,16.86
2023-05-06T08:04:40.084Z,16.90
2023-05-06T08:05:39.956Z,16.91
2023-05-06T08:06:39.960Z,16.94
2023-05-06T08:07:39.933Z,16.97
2023-05-06T08:08:39.948Z,16.97
2023-05-06T08:09:39.979Z,17.02
2023-05-06T08:10:39.935Z,17.04
2023-05-06T08:11:39.914Z,17.06
2023-05-06T08:12:39.951Z,17.08
2023-05-06T08:13:39.912Z,17.08
2023-05-06T08:14:39.889Z,17.12
2023-05-06T08:15:39.872Z,17.15
2023-05-06T08:16:39.943Z,17.19
2023-05-06T08:17:39.903Z,17.16
2023-05-06T08:18:39.864Z,17.22
2023-05-06T08:19:39.803Z,17.22
2023-05-06T08:20:39.806Z,17.24
2023-05-06T08:21:39.797Z,17.29
2023-05-06T08:22:39.801Z,17.31
2023-05-06T08:23:39.831Z,17.36
2023-05-06T08:24:39.781Z,17.38
2023-05-06T08:25:39.744Z,17.42
2023-05-06T08:26:39.759Z,17.45
2023-05-06T08:27:39.720Z,17.48
2023-05-06T08:28:39.729Z,17.49
2023-05-06T08:29:39.720Z,17.52
2023-05-06T08:30:39.719Z,17.54
2023-05-06T08:31:39.782Z,17.59
2023-05-06T08:32:39.770Z,17.60
2023-05-06T08:33:39.681Z,17.64
2023-05-06T08:34:39.651Z,17.67
2023-05-06T08:35:39.648Z,17.68
2023-05-06T08:36:39.647Z,17.71
2023-05-06T08:37:39.615Z,17.76
2023-05-06T08:38:39.674Z,17.76
2023-05-06T08:39:39.603Z,17.79
2023-05-06T08:40:39.596Z,17.82
2023-05-06T08:41:39.569Z,17.83
2023-05-06T08:42:39.573Z,17.87
2023-05-06T08:43:39.563Z,17.87
2023-05-06T08:44:39.580Z,17.87
2023-05-06T08:45:39.564Z,17.92
2023-05-06T08:46:39.520Z,17.92
2023-05-06T08:47:39.558Z,17.90
2023-05-06T08:48:39.496Z,17.94
2023-05-06T08:49:39.484Z,17.97
2023-05-06T08:50:39.566Z,17.97
2023-05-06T08:51:39.465Z,17.98
2023-05-06T08:52:39.481Z,18.03
2023-05-06T08:53:39.449Z,18.05
2023-05-06T08:54:39.446Z,18.10
2023-05-06T08:55:39.419Z,18.13
2023-05-06T08:56:39.443Z,18.19
2023-05-06T08:57:39.385Z,18.22
2023-05-06T08:58:39.392Z,18.26
2023-05-06T08:59:39.367Z,18.29
2023-05-06T09:00:39.374Z,18.31
2023-05-06T09:01:39.458Z,18.35
2023-05-06T09:02:42.179Z,18.37
2023-05-06T09:03:39.403Z,18.38
2023-05-06T09:04:39.356Z,18.40
2023-05-06T09:05:39.318Z,18.44
2023-05-06T09:06:39.299Z,18.45
2023-05-06T09:07:39.287Z,18.45
2023-05-06T09:08:39.528Z,18.47
2023-05-06T09:09:39.269Z,18.50
2023-05-06T09:10:39.267Z,18.49
2023-05-06T09:11:39.238Z,18.49
2023-05-06T09:12:39.274Z,18.50
2023-05-06T09:13:39.228Z,18.55
2023-05-06T09:14:39.237Z,18.55
2023-05-06T09:15:39.244Z,18.58
2023-05-06T09:16:39.237Z,18.62
2023-05-06T09:17:39.228Z,18.66
2023-05-06T09:18:39.174Z,18.71
2023-05-06T09:19:39.158Z,18.77
2023-05-06T09:20:39.171Z,18.80
2023-05-06T09:21:39.198Z,18.86
2023-05-06T09:22:39.151Z,18.89
2023-05-06T09:23:39.320Z,18.99
2023-05-06T09:24:39.326Z,19.07
2023-05-06T09:25:39.140Z,19.11
2023-05-06T09:26:39.185Z,19.14
2023-05-06T09:27:39.228Z,19.18
2023-05-06T09:28:39.199Z,19.26
2023-05-06T09:29:39.101Z,19.27
2023-05-06T09:30:39.196Z,19.31
2023-05-06T09:31:39.154Z,19.33
2023-05-06T09:32:40.522Z,19.39
2023-05-06T09:33:39.045Z,19.41
2023-05-06T09:34:39.071Z,19.40
2023-05-06T09:35:39.019Z,19.45
2023-05-06T09:36:39.014Z,19.48
2023-05-06T09:37:38.972Z,19.52
2023-05-06T09:38:38.967Z,19.54
2023-05-06T09:39:38.938Z,19.56
2023-05-06T09:40:38.971Z,19.62
2023-05-06T09:41:38.928Z,19.62
2023-05-06T09:42:38.960Z,19.64
2023-05-06T09:43:38.910Z,19.69
2023-05-06T09:44:38.909Z,19.71
2023-05-06T09:45:38.914Z,19.76
2023-05-06T09:46:38.986Z,19.79
2023-05-06T09:47:38.900Z,19.76
2023-05-06T09:48:38.900Z,19.79
2023-05-06T09:49:38.847Z,19.84
2023-05-06T09:50:38.866Z,19.85
2023-05-06T09:51:38.864Z,19.89
2023-05-06T09:52:38.831Z,19.94
2023-05-06T09:53:38.778Z,19.94
2023-05-06T09:54:38.862Z,20.00
2023-05-06T09:55:38.780Z,20.03
2023-05-06T09:56:38.794Z,20.04
2023-05-06T09:57:38.785Z,20.09
2023-05-06T09:58:38.764Z,20.09
2023-05-06T09:59:38.719Z,20.10
2023-05-06T10:00:38.770Z,20.14
2023-05-06T10:01:38.751Z,20.14
2023-05-06T10:02:38.963Z,20.14
2023-05-06T10:03:38.769Z,20.16
2023-05-06T10:04:38.991Z,20.21
2023-05-06T10:05:38.649Z,20.19
2023-05-06T10:06:38.672Z,20.22
2023-05-06T10:07:38.646Z,20.24
2023-05-06T10:08:38.644Z,20.26
2023-05-06T10:09:38.614Z,20.31
2023-05-06T10:10:38.642Z,20.32
2023-05-06T10:11:38.599Z,20.36
2023-05-06T10:12:38.781Z,20.37
2023-05-06T10:13:38.597Z,20.32
2023-05-06T10:14:38.576Z,20.32
2023-05-06T10:15:38.559Z,20.36
2023-05-06T10:16:38.695Z,20.39
2023-05-06T10:17:38.574Z,20.40
2023-05-06T10:18:38.576Z,20.43
2023-05-06T10:19:38.558Z,20.48
2023-05-06T10:20:38.486Z,20.48
2023-05-06T10:21:38.498Z,20.52
2023-05-06T10:22:38.527Z,20.56
2023-05-06T10:23:38.538Z,20.58
2023-05-06T10:24:38.485Z,20.59
2023-05-06T10:25:38.466Z,20.63
2023-05-06T10:26:38.434Z,20.67
2023-05-06T10:27:38.445Z,20.70
2023-05-06T10:28:38.416Z,20.80
2023-05-06T10:29:38.446Z,20.82
2023-05-06T10:30:38.406Z,20.88
2023-05-06T10:31:38.440Z,20.93
2023-05-06T10:32:38.431Z,20.99
2023-05-06T10:33:40.283Z,21.02
2023-05-06T10:34:38.338Z,21.07
2023-05-06T10:35:38.367Z,21.12
2023-05-06T10:36:38.485Z,21.15
2023-05-06T10:37:38.329Z,21.21
2023-05-06T10:38:38.308Z,21.27
2023-05-06T10:39:40.321Z,21.33
2023-05-06T10:40:38.267Z,21.37
2023-05-06T10:41:38.415Z,21.43
2023-05-06T10:42:38.273Z,21.51
2023-05-06T10:43:38.299Z,21.57
2023-05-06T10:44:38.228Z,21.58
2023-05-06T10:45:38.284Z,21.60
2023-05-06T10:46:38.213Z,21.61
2023-05-06T10:47:38.307Z,21.60
2023-05-06T10:48:38.220Z,21.57
2023-05-06T10:49:38.183Z,21.54
2023-05-06T10:50:38.166Z,21.52
2023-05-06T10:51:38.172Z,21.57
2023-05-06T10:52:38.142Z,21.55
2023-05-06T10:53:38.228Z,21.54
2023-05-06T10:54:38.174Z,21.52
2023-05-06T10:55:38.180Z,21.52
2023-05-06T10:56:38.169Z,21.55
2023-05-06T10:57:38.105Z,21.52
2023-05-06T10:58:38.090Z,21.52
2023-05-06T10:59:38.135Z,21.51
2023-05-06T11:00:38.111Z,21.52
2023-05-06T11:01:38.096Z,21.52
2023-05-06T11:02:38.186Z,21.52
2023-05-06T11:03:38.094Z,21.54
2023-05-06T11:04:38.044Z,21.55
2023-05-06T11:05:38.056Z,21.52
2023-05-06T11:06:37.984Z,21.48
2023-05-06T11:07:38.033Z,21.46
2023-05-06T11:08:37.957Z,21.46
2023-05-06T11:09:37.962Z,21.46
2023-05-06T11:10:37.975Z,21.51
2023-05-06T11:11:37.983Z,21.52
2023-05-06T11:12:37.983Z,21.55
2023-05-06T11:13:37.932Z,21.52
2023-05-06T11:14:37.911Z,21.52
2023-05-06T11:15:37.894Z,21.54
2023-05-06T11:16:38.820Z,21.55
2023-05-06T11:17:37.949Z,21.55
2023-05-06T11:18:37.850Z,21.57
2023-05-06T11:19:37.883Z,21.52
2023-05-06T11:20:37.833Z,21.48
2023-05-06T11:21:37.864Z,21.48
2023-05-06T11:22:37.821Z,21.48
2023-05-06T11:23:37.840Z,21.50
2023-05-06T11:24:37.887Z,21.52
2023-05-06T11:25:37.811Z,21.54
2023-05-06T11:26:37.762Z,21.54
2023-05-06T11:27:37.770Z,21.58
2023-05-06T11:28:37.744Z,21.60
2023-05-06T11:29:37.769Z,21.60
2023-05-06T11:30:37.735Z,21.61
2023-05-06T11:31:37.768Z,21.66
2023-05-06T11:32:37.787Z,21.64
2023-05-06T11:33:37.693Z,21.66
2023-05-06T11:34:37.704Z,21.67
2023-05-06T11:35:37.703Z,21.69
2023-05-06T11:36:37.660Z,21.70
2023-05-06T11:37:37.724Z,21.72
2023-05-06T11:38:37.631Z,21.75
2023-05-06T11:39:40.914Z,21.77
2023-05-06T11:40:37.687Z,21.79
2023-05-06T11:41:37.626Z,21.80
2023-05-06T11:42:37.594Z,21.82
2023-05-06T11:43:37.594Z,21.83
2023-05-06T11:44:37.683Z,21.88
2023-05-06T11:45:37.618Z,21.88
2023-05-06T11:46:37.579Z,21.91
2023-05-06T11:47:37.600Z,21.92
2023-05-06T11:48:37.543Z,21.92
2023-05-06T11:49:37.568Z,21.92
2023-05-06T11:50:37.502Z,21.95
2023-05-06T11:51:37.510Z,21.93
2023-05-06T11:52:37.523Z,21.91
2023-05-06T11:53:37.491Z,21.91
2023-05-06T11:54:37.484Z,21.85
2023-05-06T11:55:37.518Z,21.79
2023-05-06T11:56:37.440Z,21.72
2023-05-06T11:57:37.572Z,21.64
2023-05-06T11:58:37.411Z,21.60
2023-05-06T11:59:37.456Z,21.57
2023-05-06T12:00:37.409Z,21.54
2023-05-06T12:01:37.396Z,21.52
2023-05-06T12:02:37.565Z,21.48
2023-05-06T12:03:37.542Z,21.45
2023-05-06T12:04:37.419Z,21.43
2023-05-06T12:05:37.360Z,21.40
2023-05-06T12:06:37.396Z,21.36
2023-05-06T12:07:37.346Z,21.35
2023-05-06T12:08:37.315Z,21.33
2023-05-06T12:09:37.345Z,21.35
2023-05-06T12:10:37.292Z,21.35
2023-05-06T12:11:37.294Z,21.36
2023-05-06T12:12:37.393Z,21.35
2023-05-06T12:13:37.324Z,21.37
2023-05-06T12:14:37.261Z,21.39
2023-05-06T12:15:37.344Z,21.39
2023-05-06T12:16:37.286Z,21.43
2023-05-06T12:17:37.288Z,21.43
2023-05-06T12:18:37.216Z,21.43
2023-05-06T12:19:37.242Z,21.48
2023-05-06T12:20:37.195Z,21.51
2023-05-06T12:21:37.199Z,21.55
2023-05-06T12:22:37.162Z,21.60
2023-05-06T12:23:37.183Z,21.62
2023-05-06T12:24:37.145Z,21.69
2023-05-06T12:25:37.179Z,21.72
2023-05-06T12:26:37.199Z,21.75
2023-05-06T12:27:37.121Z,21.77
2023-05-06T12:28:37.119Z,21.82
2023-05-06T12:29:37.100Z,21.88
2023-05-06T12:30:37.079Z,21.91
2023-05-06T12:31:37.153Z,21.93
2023-05-06T12:32:37.106Z,21.96
2023-05-06T12:33:37.044Z,21.99
2023-05-06T12:34:37.037Z,22.00
2023-05-06T12:35:37.024Z,22.04
2023-05-06T12:36:37.029Z,22.07
2023-05-06T12:37:37.026Z,22.11
2023-05-06T12:38:37.066Z,22.14
2023-05-06T12:39:36.987Z,22.17
2023-05-06T12:40:36.962Z,22.23
2023-05-06T12:41:36.996Z,22.26
2023-05-06T12:42:36.946Z,22.29
2023-05-06T12:43:36.959Z,22.30
2023-05-06T12:44:36.961Z,22.35
2023-05-06T12:45:36.935Z,22.38
2023-05-06T12:46:36.904Z,22.41
2023-05-06T12:47:36.988Z,22.44
2023-05-06T12:48:36.894Z,22.47
2023-05-06T12:49:36.885Z,22.51
2023-05-06T12:50:36.876Z,22.53
2023-05-06T12:51:36.879Z,22.55
2023-05-06T12:52:36.845Z,22.63
2023-05-06T12:53:36.836Z,22.69
2023-05-06T12:54:36.829Z,22.72
2023-05-06T12:55:36.870Z,22.76
2023-05-06T12:56:36.813Z,22.83
2023-05-06T12:57:36.819Z,22.90
2023-05-06T12:58:36.779Z,22.99
2023-05-06T12:59:36.788Z,23.09
2023-05-06T13:00:36.739Z,23.15
2023-05-06T13:01:36.875Z,23.21
2023-05-06T13:02:36.844Z,23.32
2023-05-06T13:03:38.364Z,23.40
2023-05-06T13:04:36.693Z,23.44
2023-05-06T13:05:36.749Z,23.54
2023-05-06T13:06:36.674Z,23.56
2023-05-06T13:07:36.699Z,23.66
2023-05-06T13:08:36.652Z,23.68
2023-05-06T13:09:36.667Z,23.69
2023-05-06T13:10:36.660Z,23.73
2023-05-06T13:11:36.639Z,23.77
2023-05-06T13:12:36.674Z,23.81
2023-05-06T13:13:36.626Z,23.84
2023-05-06T13:14:39.208Z,23.84
2023-05-06T13:15:36.599Z,23.87
2023-05-06T13:16:36.599Z,23.87
2023-05-06T13:17:36.625Z,23.91
2023-05-06T13:18:36.570Z,23.92
2023-05-06T13:19:36.596Z,23.93
2023-05-06T13:20:36.526Z,23.98
2023-05-06T13:21:36.535Z,24.01
2023-05-06T13:22:50.592Z,24.02
2023-05-06T13:23:36.510Z,24.03
2023-05-06T13:24:36.501Z,24.08
2023-05-06T13:25:44.638Z,24.10
2023-05-06T13:26:36.462Z,24.10
2023-05-06T13:27:36.465Z,24.11
2023-05-06T13:28:36.459Z,24.14
2023-05-06T13:29:36.463Z,24.17
2023-05-06T13:30:36.446Z,24.23
2023-05-06T13:31:36.444Z,24.26
2023-05-06T13:32:36.427Z,24.29
2023-05-06T13:33:36.428Z,24.32
2023-05-06T13:34:36.389Z,24.33
2023-05-06T13:35:36.397Z,24.36
2023-05-06T13:36:36.411Z,24.38
2023-05-06T13:37:36.350Z,24.40
2023-05-06T13:38:36.332Z,24.40
2023-05-06T13:39:36.344Z,24.45
2023-05-06T13:40:36.310Z,24.50
2023-05-06T13:41:36.316Z,24.51
2023-05-06T13:42:36.305Z,24.51
2023-05-06T13:43:36.289Z,24.51
2023-05-06T13:44:36.263Z,24.51
2023-05-06T13:45:36.274Z,24.51
2023-05-06T13:46:37.635Z,24.47
2023-05-06T13:47:36.313Z,24.43
2023-05-06T13:48:36.249Z,24.40
2023-05-06T13:49:36.229Z,24.43
2023-05-06T13:50:36.209Z,24.42
2023-05-06T13:51:36.207Z,24.45
2023-05-06T13:52:36.183Z,24.47
2023-05-06T13:53:36.240Z,24.50
2023-05-06T13:54:36.175Z,24.50
2023-05-06T13:55:36.195Z,24.54
2023-05-06T13:56:36.143Z,24.58
2023-05-06T13:57:36.179Z,24.58
2023-05-06T13:58:36.143Z,24.65
2023-05-06T13:59:36.129Z,24.68
2023-05-06T14:00:36.097Z,24.76
2023-05-06T14:01:36.184Z,24.84
2023-05-06T14:02:36.086Z,24.95
2023-05-06T14:03:36.093Z,25.06
2023-05-06T14:04:36.185Z,25.17
2023-05-06T14:05:36.059Z,25.23
2023-05-06T14:06:36.047Z,25.29
2023-05-06T14:07:36.744Z,25.36
2023-05-06T14:08:36.015Z,25.44
2023-05-06T14:09:36.028Z,25.47
2023-05-06T14:10:35.998Z,25.51
2023-05-06T14:11:36.011Z,25.55
2023-05-06T14:12:36.015Z,25.63
2023-05-06T14:13:35.978Z,25.70
2023-05-06T14:14:35.980Z,25.73
2023-05-06T14:15:35.961Z,25.80
2023-05-06T14:16:36.023Z,25.84
2023-05-06T14:17:36.015Z,25.93
2023-05-06T14:18:35.898Z,26.00
2023-05-06T14:19:35.907Z,26.06
2023-05-06T14:20:35.915Z,26.10
2023-05-06T14:21:35.895Z,26.13
2023-05-06T14:22:35.889Z,26.18
2023-05-06T14:23:35.915Z,26.21
2023-05-06T14:24:35.833Z,26.26
2023-05-06T14:25:36.247Z,26.31
2023-05-06T14:26:35.911Z,26.33
2023-05-06T14:27:35.841Z,26.37
2023-05-06T14:28:35.788Z,26.29
2023-05-06T14:29:35.805Z,26.28
2023-05-06T14:30:35.800Z,26.18
2023-05-06T14:31:35.805Z,26.13
2023-05-06T14:32:35.927Z,26.07
2023-05-06T14:33:35.792Z,26.05
2023-05-06T14:34:35.730Z,26.05
2023-05-06T14:35:35.753Z,26.05
2023-05-06T14:36:35.728Z,26.05
2023-05-06T14:37:35.698Z,25.99
2023-05-06T14:38:35.762Z,25.96
2023-05-06T14:39:35.699Z,25.90
2023-05-06T14:40:35.684Z,25.85
2023-05-06T14:41:35.660Z,25.78
2023-05-06T14:42:35.673Z,25.75
2023-05-06T14:43:35.641Z,25.69
2023-05-06T14:44:35.708Z,25.68
2023-05-06T14:45:35.664Z,25.60
2023-05-06T14:46:35.628Z,25.51
2023-05-06T14:47:35.619Z,25.46
2023-05-06T14:48:35.607Z,25.40
2023-05-06T14:49:35.562Z,25.33
2023-05-06T14:50:35.601Z,25.32
2023-05-06T14:51:35.576Z,25.28
2023-05-06T14:52:35.553Z,25.25
2023-05-06T14:53:35.545Z,25.17
2023-05-06T14:54:35.534Z,25.10
2023-05-06T14:55:35.553Z,25.06
2023-05-06T14:56:35.525Z,25.01
2023-05-06T14:57:35.504Z,24.98
2023-05-06T14:58:35.519Z,24.96
2023-05-06T14:59:35.475Z,24.91
2023-05-06T15:00:35.524Z,24.89
2023-05-06T15:01:35.512Z,24.88
2023-05-06T15:02:35.466Z,24.85
2023-05-06T15:03:35.417Z,24.78
2023-05-06T15:04:35.418Z,24.74
2023-05-06T15:05:35.503Z,24.73
2023-05-06T15:06:35.408Z,24.69
2023-05-06T15:07:35.438Z,24.66
2023-05-06T15:08:35.414Z,24.60
2023-05-06T15:09:35.386Z,24.55
2023-05-06T15:10:35.387Z,24.50
2023-05-06T15:11:35.337Z,24.45
2023-05-06T15:12:35.365Z,24.39
2023-05-06T15:13:35.375Z,24.35
2023-05-06T15:14:35.320Z,24.28
2023-05-06T15:15:35.325Z,24.21
2023-05-06T15:16:35.352Z,24.17
2023-05-06T15:17:35.308Z,24.11
2023-05-06T15:18:35.318Z,24.06
2023-05-06T15:19:35.271Z,24.02
2023-05-06T15:20:35.260Z,23.98
2023-05-06T15:21:35.225Z,23.91
2023-05-06T15:22:36.720Z,23.84
2023-05-06T15:23:35.228Z,23.78
2023-05-06T15:24:35.216Z,23.76
2023-05-06T15:25:36.416Z,23.71
2023-05-06T15:26:35.180Z,23.71
2023-05-06T15:27:35.159Z,23.71
2023-05-06T15:28:35.192Z,23.66
2023-05-06T15:29:35.146Z,23.65
2023-05-06T15:30:35.163Z,23.63
2023-05-06T15:31:35.181Z,23.59
2023-05-06T15:32:35.147Z,23.51
2023-05-06T15:33:35.097Z,23.47
2023-05-06T15:34:35.110Z,23.43
2023-05-06T15:35:35.101Z,23.39
2023-05-06T15:36:35.086Z,23.34
2023-05-06T15:37:35.094Z,23.28
2023-05-06T15:38:35.056Z,23.25
2023-05-06T15:39:35.033Z,23.21
2023-05-06T15:40:35.052Z,23.17
2023-05-06T15:41:35.066Z,23.13
2023-05-06T15:42:35.024Z,23.09
2023-05-06T15:43:37.683Z,23.08
2023-05-06T15:44:35.001Z,23.06
2023-05-06T15:45:34.984Z,23.03
2023-05-06T15:46:34.987Z,23.02
2023-05-06T15:47:35.033Z,23.00
2023-05-06T15:48:34.964Z,23.00
2023-05-06T15:49:51.517Z,23.00
2023-05-06T15:50:35.065Z,22.99
2023-05-06T15:51:34.904Z,22.98
2023-05-06T15:52:34.913Z,22.98
2023-05-06T15:53:34.925Z,22.96
2023-05-06T15:54:37.184Z,22.96
2023-05-06T15:55:43.767Z,22.94
2023-05-06T15:56:40.657Z,22.91
2023-05-06T15:57:34.849Z,22.88
2023-05-06T15:58:34.861Z,22.87
2023-05-06T15:59:34.835Z,22.87
2023-05-06T16:00:34.811Z,22.85
2023-05-06T16:02:08.449Z,22.83
2023-05-06T16:02:34.871Z,22.78
2023-05-06T16:03:34.845Z,22.76
2023-05-06T16:04:35.056Z,22.75
2023-05-06T16:05:34.773Z,22.72
2023-05-06T16:06:34.762Z,22.70
2023-05-06T16:07:34.741Z,22.69
2023-05-06T16:08:34.739Z,22.69
2023-05-06T16:09:34.740Z,22.66
2023-05-06T16:10:34.819Z,22.65
2023-05-06T16:11:34.703Z,22.65
2023-05-06T16:12:34.779Z,22.63
2023-05-06T16:13:34.684Z,22.60
2023-05-06T16:14:34.689Z,22.62
2023-05-06T16:15:34.639Z,22.62
2023-05-06T16:16:35.004Z,22.62
2023-05-06T16:17:34.631Z,22.60
2023-05-06T16:18:34.614Z,22.60
2023-05-06T16:19:34.619Z,22.62
2023-05-06T16:20:34.644Z,22.62
2023-05-06T16:21:34.578Z,22.59
2023-05-06T16:22:34.618Z,22.60
2023-05-06T16:23:34.569Z,22.57
2023-05-06T16:24:34.638Z,22.59
2023-05-06T16:25:34.671Z,22.57
2023-05-06T16:26:34.562Z,22.55
2023-05-06T16:27:34.549Z,22.53
2023-05-06T16:28:34.536Z,22.50
2023-05-06T16:29:34.492Z,22.47
2023-05-06T16:30:34.499Z,22.43
2023-05-06T16:31:34.486Z,22.39
2023-05-06T16:32:34.566Z,22.35
2023-05-06T16:33:34.493Z,22.33
2023-05-06T16:34:34.454Z,22.32
2023-05-06T16:35:34.443Z,22.30
2023-05-06T16:36:34.438Z,22.25
2023-05-06T16:37:34.402Z,22.26
2023-05-06T16:38:34.540Z,22.22
2023-05-06T16:39:34.402Z,22.20
2023-05-06T16:40:34.408Z,22.14
2023-05-06T16:41:34.369Z,22.11
2023-05-06T16:42:34.375Z,22.11
2023-05-06T16:43:34.338Z,22.10
2023-05-06T16:44:34.342Z,22.08
2023-05-06T16:45:34.341Z,22.08
2023-05-06T16:46:34.348Z,22.06
2023-05-06T16:47:34.424Z,22.07
2023-05-06T16:48:34.543Z,22.00
2023-05-06T16:49:34.286Z,21.95
2023-05-06T16:50:34.290Z,21.91
2023-05-06T16:51:34.309Z,21.83
2023-05-06T16:52:34.280Z,21.76
2023-05-06T16:53:34.233Z,21.73
2023-05-06T16:54:34.238Z,21.72
2023-05-06T16:55:34.206Z,21.70
2023-05-06T16:56:48.212Z,21.66
2023-05-06T16:57:34.214Z,21.64
2023-05-06T16:58:34.206Z,21.61
2023-05-06T16:59:34.178Z,21.60
2023-05-06T17:00:34.297Z,21.58
2023-05-06T17:01:34.403Z,21.58
2023-05-06T17:02:34.333Z,21.57
2023-05-06T17:03:34.234Z,21.55
2023-05-06T17:04:34.125Z,21.57
2023-05-06T17:05:34.099Z,21.54
2023-05-06T17:06:34.104Z,21.55
2023-05-06T17:07:34.078Z,21.54
2023-05-06T17:08:36.244Z,21.52
2023-05-06T17:09:34.103Z,21.52
2023-05-06T17:10:34.099Z,21.50
2023-05-06T17:11:34.028Z,21.46
2023-05-06T17:12:34.061Z,21.43
2023-05-06T17:13:34.064Z,21.40
2023-05-06T17:14:34.029Z,21.36
2023-05-06T17:15:33.991Z,21.35
2023-05-06T17:16:34.036Z,21.32
2023-05-06T17:17:34.025Z,21.30
2023-05-06T17:18:33.971Z,21.27
2023-05-06T17:19:33.958Z,21.25
2023-05-06T17:20:47.518Z,21.27
2023-05-06T17:21:33.946Z,21.27
2023-05-06T17:22:33.947Z,21.27
2023-05-06T17:23:33.967Z,21.24
2023-05-06T17:24:33.919Z,21.22
2023-05-06T17:25:33.881Z,21.20
2023-05-06T17:26:33.903Z,21.21